createdAt,value
2023-05-22T00:02:14.090Z,49.80
2023-05-22T00:04:41.615Z,48.97
2023-05-22T00:07:08.808Z,49.61
2023-05-22T00:09:36.109Z,50.48
2023-05-22T00:12:03.633Z,54.43
2023-05-22T00:14:30.845Z,54.72
2023-05-22T00:16:58.568Z,50.66
2023-05-22T00:19:26.570Z,50.36
2023-05-22T00:21:54.327Z,53.37
2023-05-22T00:24:21.762Z,57.40
2023-05-22T00:26:49.266Z,59.46
2023-05-22T00:29:16.500Z,54.06
2023-05-22T00:31:43.672Z,50.96
2023-05-22T00:34:11.267Z,50.12
2023-05-22T00:36:38.521Z,52.50
2023-05-22T00:39:06.329Z,49.95
2023-05-22T00:41:34.085Z,51.44
2023-05-22T00:44:01.471Z,53.26
2023-05-22T00:46:28.920Z,54.75
2023-05-22T00:48:56.717Z,55.12
2023-05-22T00:51:24.153Z,54.06
2023-05-22T00:53:51.367Z,57.05
2023-05-22T00:56:18.909Z,59.03
2023-05-22T00:58:46.169Z,62.63
2023-05-22T01:01:13.832Z,66.89
2023-05-22T01:03:44.871Z,70.43
2023-05-22T01:06:18.031Z,69.81
2023-05-22T01:08:46.054Z,71.59
2023-05-22T01:11:25.666Z,72.86
2023-05-22T01:14:31.955Z,71.44
2023-05-22T01:17:24.699Z,74.48
2023-05-22T01:20:07.315Z,73.37
2023-05-22T01:23:08.891Z,66.53
2023-05-22T01:25:58.492Z,60.85
2023-05-22T01:28:50.823Z,55.98
2023-05-22T01:31:19.684Z,60.13
2023-05-22T01:33:48.709Z,64.92
2023-05-22T01:36:16.298Z,66.52
2023-05-22T01:38:43.816Z,63.75
2023-05-22T01:41:11.099Z,64.23
2023-05-22T01:43:38.361Z,61.18
2023-05-22T01:46:06.978Z,63.55
2023-05-22T01:48:35.348Z,65.41
2023-05-22T01:51:08.542Z,66.92
2023-05-22T01:53:39.798Z,68.52
2023-05-22T01:56:08.081Z,70.86
2023-05-22T01:58:53.253Z,70.07
2023-05-22T02:01:20.895Z,69.94
2023-05-22T02:03:48.477Z,66.53
2023-05-22T02:06:16.559Z,62.78
2023-05-22T02:08:43.793Z,63.34
2023-05-22T02:11:11.364Z,62.34
2023-05-22T02:13:38.603Z,61.79
2023-05-22T02:16:06.330Z,61.07
2023-05-22T02:18:33.922Z,60.61
2023-05-22T02:21:02.648Z,57.34
2023-05-22T02:23:31.247Z,56.18
2023-05-22T02:25:58.544Z,55.02
2023-05-22T02:28:26.974Z,52.32
2023-05-22T02:30:54.480Z,54.29
2023-05-22T02:33:21.785Z,60.86
2023-05-22T02:35:49.630Z,65.79
2023-05-22T02:38:17.213Z,64.99
2023-05-22T02:40:45.019Z,67.46
2023-05-22T02:43:12.260Z,71.16
2023-05-22T02:45:39.994Z,72.76
2023-05-22T02:48:07.444Z,71.08
2023-05-22T02:50:34.966Z,69.93
2023-05-22T02:53:02.728Z,63.05
2023-05-22T02:55:30.496Z,59.42
2023-05-22T02:57:57.935Z,54.48
2023-05-22T03:00:25.902Z,51.21
2023-05-22T03:02:55.366Z,49.86
2023-05-22T03:05:23.224Z,53.06
2023-05-22T03:07:53.003Z,57.63
2023-05-22T03:10:20.249Z,60.38
2023-05-22T03:12:48.166Z,64.36
2023-05-22T03:15:15.960Z,70.76
2023-05-22T03:17:43.541Z,73.20
2023-05-22T03:20:15.011Z,68.96
2023-05-22T03:22:43.862Z,66.57
2023-05-22T03:25:11.467Z,67.50
2023-05-22T03:27:41.131Z,66.04
2023-05-22T03:30:09.140Z,70.08
2023-05-22T03:32:38.087Z,69.34
2023-05-22T03:35:06.408Z,62.68
2023-05-22T03:37:34.449Z,65.76
2023-05-22T03:40:02.127Z,71.96
2023-05-22T03:42:29.684Z,71.36
2023-05-22T03:44:57.683Z,72.56
2023-05-22T03:47:25.954Z,73.36
2023-05-22T03:49:53.429Z,68.35
2023-05-22T03:52:22.764Z,69.22
2023-05-22T03:54:50.253Z,68.52
2023-05-22T03:57:19.973Z,72.98
2023-05-22T03:59:47.787Z,72.57
2023-05-22T04:02:17.118Z,73.33
2023-05-22T04:04:47.478Z,72.19
2023-05-22T04:07:15.023Z,71.37
2023-05-22T04:09:42.444Z,70.41
2023-05-22T04:12:10.513Z,69.42
2023-05-22T04:14:37.969Z,71.49
2023-05-22T04:17:05.435Z,71.20
2023-05-22T04:19:33.263Z,68.48
2023-05-22T04:22:00.904Z,67.92
2023-05-22T04:24:28.368Z,63.18
2023-05-22T04:26:56.229Z,62.42
2023-05-22T04:29:24.365Z,57.87
2023-05-22T04:31:54.426Z,56.53
2023-05-22T04:34:22.223Z,66.28
2023-05-22T04:36:49.747Z,71.64
2023-05-22T04:39:18.409Z,72.34
2023-05-22T04:41:46.351Z,69.84
2023-05-22T04:44:14.379Z,60.85
2023-05-22T04:46:42.372Z,56.17
2023-05-22T04:49:10.507Z,52.25
2023-05-22T04:51:37.971Z,53.21
2023-05-22T04:54:06.322Z,54.17
2023-05-22T04:56:36.880Z,50.96
2023-05-22T04:59:05.665Z,53.79
2023-05-22T05:01:35.174Z,52.00
2023-05-22T05:04:03.929Z,50.84
2023-05-22T05:06:31.524Z,49.57
2023-05-22T05:08:59.158Z,46.98
2023-05-22T05:11:26.622Z,46.34
2023-05-22T05:13:54.179Z,45.76
2023-05-22T05:16:23.364Z,44.71
2023-05-22T05:18:52.018Z,43.11
2023-05-22T05:21:21.395Z,45.07
2023-05-22T05:23:49.154Z,44.55
2023-05-22T05:26:16.630Z,41.15
2023-05-22T05:28:44.227Z,41.38
2023-05-22T05:31:12.984Z,44.75
2023-05-22T05:33:42.828Z,44.99
2023-05-22T05:36:10.980Z,43.93
2023-05-22T05:38:38.867Z,42.64
2023-05-22T05:41:07.074Z,42.88
2023-05-22T05:43:35.355Z,42.88
2023-05-22T05:46:03.718Z,44.96
2023-05-22T05:48:31.364Z,43.80
2023-05-22T05:50:59.220Z,43.74
2023-05-22T05:53:28.811Z,43.43
2023-05-22T05:55:56.648Z,42.59
2023-05-22T05:58:24.118Z,43.33
2023-05-22T06:00:53.794Z,41.57
2023-05-22T06:03:21.793Z,40.40
2023-05-22T06:05:49.907Z,40.10
2023-05-22T06:08:19.930Z,39.86
2023-05-22T06:10:48.256Z,40.36
2023-05-22T06:13:16.303Z,40.60
2023-05-22T06:15:43.866Z,38.32
2023-05-22T06:18:11.891Z,37.73
2023-05-22T06:20:39.777Z,36.17
2023-05-22T06:23:07.755Z,36.87
2023-05-22T06:25:35.560Z,37.40
2023-05-22T06:28:06.059Z,39.51
2023-05-22T06:30:40.065Z,38.18
2023-05-22T06:33:13.035Z,35.06
2023-05-22T06:35:42.034Z,36.13
2023-05-22T06:38:10.333Z,35.83
2023-05-22T06:40:38.248Z,35.28
2023-05-22T06:43:06.265Z,36.48
2023-05-22T06:45:34.339Z,35.77
2023-05-22T06:48:02.571Z,33.93
2023-05-22T06:50:31.582Z,34.19
2023-05-22T06:52:59.379Z,33.01
2023-05-22T06:55:27.097Z,31.22
2023-05-22T06:57:55.921Z,33.13
2023-05-22T07:00:24.116Z,33.05
2023-05-22T07:02:53.069Z,32.56
2023-05-22T07:05:20.823Z,31.37
2023-05-22T07:07:49.043Z,33.03
2023-05-22T07:10:16.471Z,32.15
2023-05-22T07:12:43.981Z,31.17
2023-05-22T07:15:13.525Z,31.38
2023-05-22T07:17:41.944Z,31.32
2023-05-22T07:20:10.712Z,30.61
2023-05-22T07:22:38.681Z,29.17
2023-05-22T07:25:06.662Z,30.04
2023-05-22T07:27:34.069Z,30.84
2023-05-22T07:30:01.986Z,29.75
2023-05-22T07:32:30.006Z,28.56
2023-05-22T07:34:57.610Z,30.63
2023-05-22T07:37:25.273Z,29.94
2023-05-22T07:39:52.489Z,29.11
2023-05-22T07:42:20.172Z,30.02
2023-05-22T07:44:48.440Z,30.19
2023-05-22T07:47:16.059Z,30.45
2023-05-22T07:49:43.820Z,30.48
2023-05-22T07:52:11.710Z,30.39
2023-05-22T07:54:39.578Z,29.18
2023-05-22T07:57:08.251Z,30.47
2023-05-22T07:59:37.767Z,31.40
2023-05-22T08:02:05.189Z,29.77
2023-05-22T08:04:32.789Z,30.75
2023-05-22T08:07:00.225Z,31.41
2023-05-22T08:09:27.466Z,32.06
2023-05-22T08:11:55.022Z,30.68
2023-05-22T08:14:22.359Z,31.08
2023-05-22T08:16:49.576Z,31.31
2023-05-22T08:19:17.248Z,30.88
2023-05-22T08:21:44.540Z,30.31
2023-05-22T08:24:11.928Z,30.07
2023-05-22T08:26:40.450Z,30.29
2023-05-22T08:29:07.695Z,29.48
2023-05-22T08:31:36.020Z,28.17
2023-05-22T08:34:04.915Z,28.49
2023-05-22T08:36:34.096Z,27.52
2023-05-22T08:39:01.940Z,27.90
2023-05-22T08:41:29.806Z,32.56
2023-05-22T08:43:57.433Z,32.44
2023-05-22T08:46:29.198Z,28.82
2023-05-22T08:48:57.085Z,27.38
2023-05-22T08:51:28.328Z,26.50
2023-05-22T08:53:56.128Z,26.14
2023-05-22T08:56:23.617Z,25.81
2023-05-22T08:58:51.263Z,24.60
2023-05-22T09:01:18.474Z,24.63
2023-05-22T09:03:47.175Z,26.18
2023-05-22T09:06:14.766Z,28.50
2023-05-22T09:08:42.886Z,26.79
2023-05-22T09:11:11.455Z,27.79
2023-05-22T09:13:39.011Z,26.61
2023-05-22T09:16:10.565Z,26.79
2023-05-22T09:18:39.717Z,30.42
2023-05-22T09:21:17.739Z,29.38
2023-05-22T09:23:54.741Z,29.97
2023-05-22T09:26:22.420Z,29.98
2023-05-22T09:28:49.682Z,29.69
2023-05-22T09:31:17.380Z,25.98
2023-05-22T09:33:45.055Z,26.93
2023-05-22T09:36:12.621Z,27.83
2023-05-22T09:38:40.078Z,27.66
2023-05-22T09:41:07.430Z,27.69
2023-05-22T09:43:34.609Z,31.23
2023-05-22T09:46:04.373Z,33.63
2023-05-22T09:48:38.220Z,29.54
2023-05-22T09:51:05.779Z,30.70
2023-05-22T09:53:33.167Z,28.56
2023-05-22T09:56:00.609Z,31.83
2023-05-22T09:58:29.900Z,35.97
2023-05-22T10:00:57.637Z,33.69
2023-05-22T10:03:26.453Z,33.11
2023-05-22T10:05:54.435Z,33.88
2023-05-22T10:08:22.105Z,35.92
2023-05-22T10:10:51.456Z,35.68
2023-05-22T10:13:18.870Z,34.31
2023-05-22T10:15:47.031Z,31.99
2023-05-22T10:18:16.010Z,30.18
2023-05-22T10:20:43.536Z,30.05
2023-05-22T10:23:11.207Z,28.21
2023-05-22T10:25:38.964Z,27.18
2023-05-22T10:28:07.030Z,28.48
2023-05-22T10:30:41.124Z,28.09
2023-05-22T10:33:11.706Z,28.81
2023-05-22T10:35:41.374Z,27.97
2023-05-22T10:38:27.790Z,30.16
2023-05-22T10:40:54.975Z,27.36
2023-05-22T10:43:22.720Z,29.84
2023-05-22T10:45:50.025Z,28.21
2023-05-22T10:48:17.308Z,27.56
2023-05-22T10:50:52.905Z,25.94
2023-05-22T10:53:21.406Z,26.51
2023-05-22T10:55:53.786Z,26.30
2023-05-22T10:58:28.885Z,26.79
2023-05-22T11:01:13.284Z,27.32
2023-05-22T11:04:00.832Z,31.89
2023-05-22T11:06:35.944Z,28.05
2023-05-22T11:09:18.951Z,27.93
2023-05-22T11:11:46.913Z,24.82
2023-05-22T11:14:16.566Z,26.54
2023-05-22T11:16:43.928Z,27.24
2023-05-22T11:19:22.631Z,27.88
2023-05-22T11:21:51.147Z,26.21
2023-05-22T11:24:18.979Z,24.80
2023-05-22T11:26:53.710Z,26.06
2023-05-22T11:29:21.311Z,26.15
2023-05-22T11:31:48.797Z,26.71
2023-05-22T11:34:16.328Z,27.69
2023-05-22T11:36:43.906Z,24.72
2023-05-22T11:39:14.744Z,25.09
2023-05-22T11:41:41.958Z,24.46
2023-05-22T11:44:09.652Z,23.43
2023-05-22T11:46:39.415Z,22.28
2023-05-22T11:49:07.154Z,24.16
2023-05-22T11:51:34.702Z,23.41
2023-05-22T11:54:02.001Z,24.58
2023-05-22T11:56:29.744Z,25.01
2023-05-22T11:58:57.246Z,25.26
2023-05-22T12:01:24.466Z,25.22
2023-05-22T12:03:52.124Z,23.53
2023-05-22T12:06:19.386Z,23.92
2023-05-22T12:08:46.625Z,24.00
2023-05-22T12:11:14.081Z,22.90
2023-05-22T12:13:41.415Z,23.67
2023-05-22T12:16:18.802Z,24.88
2023-05-22T12:18:46.387Z,24.58
2023-05-22T12:21:13.860Z,24.04
2023-05-22T12:23:51.165Z,22.19
2023-05-22T12:26:19.597Z,22.04
2023-05-22T12:28:47.057Z,22.35
2023-05-22T12:31:22.106Z,23.20
2023-05-22T12:33:49.904Z,24.08
2023-05-22T12:36:17.141Z,26.84
2023-05-22T12:38:44.449Z,27.95
2023-05-22T12:41:11.953Z,25.15
2023-05-22T12:43:39.158Z,25.16
2023-05-22T12:46:06.501Z,25.45
2023-05-22T12:48:34.116Z,28.96
2023-05-22T12:51:01.566Z,31.99
2023-05-22T12:53:29.024Z,30.71
2023-05-22T12:55:56.617Z,28.18
2023-05-22T12:58:23.854Z,28.55
2023-05-22T13:00:51.086Z,29.33
2023-05-22T13:03:18.663Z,27.94
2023-05-22T13:05:45.975Z,26.57
2023-05-22T13:08:13.206Z,26.40
2023-05-22T13:10:40.814Z,25.41
2023-05-22T13:13:08.015Z,24.59
2023-05-22T13:15:36.307Z,25.88
2023-05-22T13:18:04.296Z,24.29
2023-05-22T13:20:31.704Z,24.68
2023-05-22T13:22:58.964Z,25.58
2023-05-22T13:25:26.503Z,30.14
2023-05-22T13:27:53.723Z,32.49
2023-05-22T13:30:21.124Z,30.95
2023-05-22T13:32:48.842Z,29.51
2023-05-22T13:35:16.315Z,27.83
2023-05-22T13:37:43.691Z,27.21
2023-05-22T13:40:11.409Z,26.44
2023-05-22T13:42:39.052Z,26.04
2023-05-22T13:45:06.576Z,28.34
2023-05-22T13:47:34.286Z,25.35
2023-05-22T13:50:02.100Z,25.54
2023-05-22T13:52:29.970Z,26.07
2023-05-22T13:54:57.808Z,27.77
2023-05-22T13:57:24.990Z,30.21
2023-05-22T13:59:52.405Z,30.82
2023-05-22T14:02:20.911Z,30.78
2023-05-22T14:04:49.066Z,31.58
2023-05-22T14:07:16.979Z,32.67
2023-05-22T14:09:46.049Z,32.21
2023-05-22T14:12:13.987Z,34.77
2023-05-22T14:14:41.322Z,32.00
2023-05-22T14:17:09.130Z,28.82
2023-05-22T14:19:38.170Z,28.56
2023-05-22T14:22:05.376Z,30.51
2023-05-22T14:24:32.665Z,29.54
2023-05-22T14:27:00.099Z,29.45
2023-05-22T14:29:27.964Z,27.62
2023-05-22T14:31:55.605Z,28.38
2023-05-22T14:34:23.122Z,30.17
2023-05-22T14:36:50.366Z,31.29
2023-05-22T14:39:17.626Z,29.81
2023-05-22T14:41:45.108Z,29.13
2023-05-22T14:44:12.325Z,30.34
2023-05-22T14:46:39.611Z,32.75
2023-05-22T14:49:07.594Z,31.11
2023-05-22T14:51:34.993Z,30.37
2023-05-22T14:54:02.240Z,30.33
2023-05-22T14:56:29.756Z,29.77
2023-05-22T14:58:57.473Z,28.77
2023-05-22T15:01:24.770Z,26.69
2023-05-22T15:03:52.407Z,29.55
2023-05-22T15:06:19.669Z,31.90
2023-05-22T15:08:46.946Z,31.57
2023-05-22T15:11:14.456Z,30.98
2023-05-22T15:13:41.739Z,29.36
2023-05-22T15:16:09.086Z,32.73
2023-05-22T15:18:36.609Z,32.04
2023-05-22T15:21:04.220Z,31.01
2023-05-22T15:23:31.637Z,31.72
2023-05-22T15:25:59.198Z,30.77
2023-05-22T15:28:26.415Z,27.85
2023-05-22T15:30:53.597Z,28.29
2023-05-22T15:33:21.747Z,26.68
2023-05-22T15:35:49.101Z,26.80
2023-05-22T15:38:16.654Z,29.16
2023-05-22T15:40:44.571Z,30.75
2023-05-22T15:43:11.825Z,29.49
2023-05-22T15:45:39.334Z,30.84
2023-05-22T15:48:07.297Z,33.15
2023-05-22T15:50:34.674Z,33.47
2023-05-22T15:53:02.041Z,31.52
2023-05-22T15:55:29.592Z,31.60
2023-05-22T15:57:57.786Z,31.88
2023-05-22T16:00:26.070Z,31.22
2023-05-22T16:02:54.037Z,30.02
2023-05-22T16:05:21.516Z,29.77
2023-05-22T16:07:48.732Z,30.37
2023-05-22T16:10:16.239Z,29.97
2023-05-22T16:12:43.475Z,29.15
2023-05-22T16:15:10.948Z,30.95
2023-05-22T16:17:38.971Z,32.93
2023-05-22T16:20:07.072Z,32.65
2023-05-22T16:22:47.180Z,34.47
2023-05-22T16:25:18.530Z,36.47
2023-05-22T16:27:45.791Z,34.46
2023-05-22T16:30:14.878Z,32.16
2023-05-22T16:32:43.090Z,39.74
2023-05-22T16:35:11.229Z,43.74
2023-05-22T16:37:38.429Z,42.06
2023-05-22T16:40:07.952Z,42.46
2023-05-22T16:42:36.393Z,43.10
2023-05-22T16:45:04.171Z,44.28
2023-05-22T16:47:33.235Z,46.18
2023-05-22T16:50:00.515Z,47.05
2023-05-22T16:52:27.737Z,45.73
2023-05-22T16:54:55.306Z,45.46
2023-05-22T16:57:22.539Z,44.38
2023-05-22T16:59:49.769Z,44.56
2023-05-22T17:02:17.358Z,44.35
2023-05-22T17:04:44.648Z,44.93
2023-05-22T17:07:14.126Z,42.77
2023-05-22T17:09:41.669Z,40.86
2023-05-22T17:12:09.073Z,40.21
2023-05-22T17:14:36.375Z,42.62
2023-05-22T17:17:03.894Z,40.71
2023-05-22T17:19:32.285Z,39.39
2023-05-22T17:21:59.955Z,42.54
2023-05-22T17:24:27.869Z,44.54
2023-05-22T17:26:55.124Z,44.39
2023-05-22T17:29:22.381Z,42.51
2023-05-22T17:31:50.011Z,40.80
2023-05-22T17:34:17.450Z,46.41
2023-05-22T17:36:45.179Z,45.23
2023-05-22T17:39:12.831Z,51.30
2023-05-22T17:41:40.071Z,50.57
2023-05-22T17:44:07.375Z,46.71
2023-05-22T17:46:35.061Z,46.36
2023-05-22T17:49:02.682Z,45.07
2023-05-22T17:51:29.882Z,53.12
2023-05-22T17:53:59.013Z,51.93
2023-05-22T17:56:26.664Z,52.66
2023-05-22T17:58:53.944Z,52.51
2023-05-22T18:01:21.494Z,52.58
2023-05-22T18:03:49.275Z,52.11
2023-05-22T18:06:16.739Z,56.44
2023-05-22T18:08:44.196Z,53.73
2023-05-22T18:11:11.671Z,52.29
2023-05-22T18:13:38.851Z,52.68
2023-05-22T18:16:06.270Z,50.54
2023-05-22T18:18:33.778Z,49.66
2023-05-22T18:21:01.963Z,49.78
2023-05-22T18:23:29.163Z,50.30
2023-05-22T18:25:57.347Z,49.64
2023-05-22T18:28:26.608Z,46.93
2023-05-22T18:30:53.920Z,51.90
2023-05-22T18:33:22.829Z,52.45
2023-05-22T18:35:50.148Z,46.81
2023-05-22T18:38:17.637Z,45.44
2023-05-22T18:40:46.126Z,47.27
2023-05-22T18:43:13.428Z,46.68
2023-05-22T18:45:40.634Z,47.43
2023-05-22T18:48:08.356Z,45.37
2023-05-22T18:50:35.767Z,44.21
2023-05-22T18:53:02.958Z,44.13
2023-05-22T18:55:30.493Z,43.96
2023-05-22T18:57:57.738Z,42.57
2023-05-22T19:00:25.053Z,44.13
2023-05-22T19:02:52.602Z,45.68
2023-05-22T19:05:20.183Z,44.33
2023-05-22T19:07:47.397Z,43.88
2023-05-22T19:10:15.047Z,42.41
2023-05-22T19:12:42.293Z,41.70
2023-05-22T19:15:09.836Z,42.58
2023-05-22T19:17:37.405Z,46.60
2023-05-22T19:20:07.391Z,46.80
2023-05-22T19:22:34.864Z,47.54
2023-05-22T19:25:03.075Z,48.30
2023-05-22T19:27:31.000Z,49.48
2023-05-22T19:29:58.210Z,48.20
2023-05-22T19:32:27.410Z,44.60
2023-05-22T19:34:55.078Z,43.75
2023-05-22T19:37:22.413Z,44.78
2023-05-22T19:39:49.927Z,48.29
2023-05-22T19:42:18.346Z,57.15
2023-05-22T19:44:46.019Z,61.13
2023-05-22T19:47:13.892Z,50.91
2023-05-22T19:49:41.217Z,47.92
2023-05-22T19:52:08.528Z,48.22
2023-05-22T19:54:37.897Z,54.88
2023-05-22T19:57:05.123Z,55.34
2023-05-22T19:59:34.185Z,59.28
2023-05-22T20:02:04.030Z,63.15
2023-05-22T20:04:31.736Z,63.99
2023-05-22T20:06:59.043Z,63.18
2023-05-22T20:09:26.975Z,62.15
2023-05-22T20:11:54.553Z,63.09
2023-05-22T20:14:21.933Z,61.29
2023-05-22T20:16:49.245Z,63.27
2023-05-22T20:19:17.623Z,61.87
2023-05-22T20:21:44.904Z,63.26
2023-05-22T20:24:17.414Z,65.35
2023-05-22T20:26:44.962Z,65.75
2023-05-22T20:29:13.084Z,65.67
2023-05-22T20:31:40.353Z,63.25
2023-05-22T20:34:09.314Z,57.76
2023-05-22T20:36:36.689Z,59.25
2023-05-22T20:39:03.914Z,59.68
2023-05-22T20:41:31.716Z,63.10
2023-05-22T20:43:59.225Z,66.10
2023-05-22T20:46:26.915Z,66.42
2023-05-22T20:48:54.513Z,66.59
2023-05-22T20:51:21.647Z,66.96
2023-05-22T20:53:50.183Z,68.36
2023-05-22T20:56:17.892Z,69.91
2023-05-22T20:58:45.342Z,70.32
2023-05-22T21:01:12.838Z,69.28
2023-05-22T21:03:40.603Z,66.60
2023-05-22T21:06:07.880Z,69.06
2023-05-22T21:08:35.127Z,68.49
2023-05-22T21:11:02.648Z,68.34
2023-05-22T21:13:29.845Z,66.62
2023-05-22T21:15:57.067Z,66.87
2023-05-22T21:18:24.614Z,68.96
2023-05-22T21:20:51.790Z,69.69
2023-05-22T21:23:18.992Z,70.52
2023-05-22T21:25:46.469Z,69.87
2023-05-22T21:28:14.677Z,70.63
2023-05-22T21:30:42.121Z,69.20
2023-05-22T21:33:09.773Z,66.42
2023-05-22T21:35:38.008Z,67.20
2023-05-22T21:38:05.437Z,63.35
2023-05-22T21:40:33.016Z,63.95
2023-05-22T21:43:00.182Z,66.17
2023-05-22T21:45:27.385Z,67.70
2023-05-22T21:47:54.974Z,71.11
2023-05-22T21:50:22.232Z,71.34
2023-05-22T21:52:49.596Z,71.71
2023-05-22T21:55:17.302Z,72.42
2023-05-22T21:57:45.873Z,73.60
2023-05-22T22:00:13.977Z,72.71
2023-05-22T22:02:41.861Z,71.13
2023-05-22T22:05:11.673Z,67.09
2023-05-22T22:07:39.131Z,65.87
2023-05-22T22:10:07.658Z,65.36
2023-05-22T22:12:35.080Z,66.50
2023-05-22T22:15:02.552Z,67.64
2023-05-22T22:17:30.368Z,68.36
2023-05-22T22:19:58.099Z,66.71
2023-05-22T22:22:25.635Z,65.16
2023-05-22T22:24:53.407Z,64.86
2023-05-22T22:27:20.861Z,65.38
2023-05-22T22:29:48.495Z,66.13
2023-05-22T22:32:16.305Z,65.74
2023-05-22T22:34:45.239Z,68.59
2023-05-22T22:37:13.952Z,67.81
2023-05-22T22:39:41.449Z,69.53
2023-05-22T22:42:08.676Z,69.12
2023-05-22T22:44:36.304Z,68.03
2023-05-22T22:47:04.713Z,66.66
2023-05-22T22:49:32.173Z,62.53
2023-05-22T22:51:59.586Z,59.05
2023-05-22T22:54:27.300Z,62.40
2023-05-22T22:56:54.944Z,63.63
2023-05-22T22:59:22.395Z,67.48
2023-05-22T23:01:50.149Z,70.93
2023-05-22T23:04:17.726Z,71.80
2023-05-22T23:06:46.151Z,73.28
2023-05-22T23:09:14.763Z,72.02
2023-05-22T23:11:42.195Z,67.82
2023-05-22T23:14:09.912Z,68.02
2023-05-22T23:16:40.853Z,62.51
2023-05-22T23:19:10.334Z,62.92
2023-05-22T23:21:38.109Z,65.91
2023-05-22T23:24:05.750Z,63.14
2023-05-22T23:26:33.577Z,62.93
2023-05-22T23:29:01.350Z,67.56
2023-05-22T23:31:30.736Z,67.62
2023-05-22T23:33:58.531Z,70.40
2023-05-22T23:36:26.020Z,69.32
2023-05-22T23:38:53.237Z,68.32
2023-05-22T23:41:20.426Z,65.35
2023-05-22T23:43:47.883Z,64.49
2023-05-22T23:46:15.104Z,68.04
2023-05-22T23:48:42.544Z,68.02
2023-05-22T23:51:10.131Z,66.60
2023-05-22T23:53:37.536Z,66.21
2023-05-22T23:56:04.823Z,68.55
2023-05-22T23:58:32.404Z,69.50
